Time;durP1;ratioP1;P1;durP2;ratioP2;P2;SDS_P1;SDS_P2;PMS_P1;PMS_P2;Temp;Humidity;BMP_temperature;BMP_pressure;BME280_temperature;BME280_humidity;BME280_pressure;Samples;Min_cycle;Max_cycle;Signal;HPM_P1;HPM_P2
2022/05/30 00:00:26;;;;;;;0.73;0.35;;;11.20;99.90;;;;;;5034280;28;20054;-75
2022/05/30 00:02:54;;;;;;;1.77;0.80;;;11.30;99.90;;;;;;5031518;28;20060;-75
2022/05/30 00:05:24;;;;;;;2.13;0.57;;;11.30;99.90;;;;;;5039958;28;20033;-78
2022/05/30 00:07:51;;;;;;;1.10;0.60;;;11.30;99.90;;;;;;5044386;28;20025;-77
2022/05/30 00:10:22;;;;;;;1.08;0.57;;;11.30;99.90;;;;;;5041567;28;20032;-77
2022/05/30 00:12:50;;;;;;;1.10;1.00;;;11.30;99.90;;;;;;5046799;28;20029;-75
2022/05/30 00:15:20;;;;;;;1.45;0.50;;;11.30;99.90;;;;;;5045178;28;20136;-76
2022/05/30 00:17:47;;;;;;;2.45;0.50;;;11.30;99.90;;;;;;5044079;28;20108;-76
2022/05/30 00:20:15;;;;;;;2.60;0.60;;;11.30;99.90;;;;;;5043819;28;20097;-75
2022/05/30 00:22:42;;;;;;;1.65;0.70;;;11.30;99.90;;;;;;5040522;28;20044;-76
2022/05/30 00:25:10;;;;;;;3.60;0.60;;;11.30;99.90;;;;;;5041694;28;20036;-75
2022/05/30 00:27:38;;;;;;;1.75;0.65;;;11.30;99.90;;;;;;5045259;28;20055;-79
2022/05/30 00:30:05;;;;;;;1.27;0.50;;;11.30;99.90;;;;;;5040084;28;20036;-76
2022/05/30 00:32:34;;;;;;;4.10;0.68;;;11.30;99.90;;;;;;5041813;28;20047;-77
2022/05/30 00:35:03;;;;;;;1.67;0.60;;;11.40;99.90;;;;;;5039128;28;20087;-75
2022/05/30 00:37:31;;;;;;;0.85;0.50;;;11.40;99.90;;;;;;5030323;28;20025;-77
2022/05/30 00:39:58;;;;;;;1.38;1.00;;;11.40;99.90;;;;;;5037284;28;20098;-74
2022/05/30 00:42:27;;;;;;;1.85;0.90;;;11.50;99.90;;;;;;5032000;28;20131;-76
2022/05/30 00:44:55;;;;;;;3.13;0.60;;;11.50;99.90;;;;;;5039582;28;20021;-77
2022/05/30 00:47:25;;;;;;;3.05;0.85;;;11.50;99.90;;;;;;5040673;28;20037;-77
2022/05/30 00:49:53;;;;;;;1.70;0.90;;;11.60;99.90;;;;;;5040187;28;20024;-79
2022/05/30 00:52:41;;;;;;;1.85;0.95;;;11.60;99.90;;;;;;5038748;28;20124;-75
2022/05/30 00:55:20;;;;;;;2.55;1.45;;;11.60;99.90;;;;;;5041946;28;20018;-75
2022/05/30 00:57:49;;;;;;;1.70;0.80;;;11.60;99.90;;;;;;5047522;28;20109;-75
2022/05/30 01:00:20;;;;;;;1.27;0.70;;;11.60;99.90;;;;;;5050381;28;20658;-75
2022/05/30 01:06:30;;;;;;;2.78;0.70;;;11.70;99.90;;;;;;5040936;28;20043;-75
2022/05/30 01:08:22;;;;;;;1.52;0.63;;;11.80;99.90;;;;;;5045125;28;20388;-77
2022/05/30 01:10:50;;;;;;;2.65;0.80;;;11.80;99.90;;;;;;5045045;28;20111;-75
2022/05/30 01:13:17;;;;;;;3.20;1.08;;;11.90;99.90;;;;;;5042161;28;20030;-75
2022/05/30 01:15:44;;;;;;;2.88;1.00;;;11.90;99.90;;;;;;5031714;28;20025;-76
2022/05/30 01:18:23;;;;;;;5.00;2.65;;;12.00;99.90;;;;;;5034989;28;20471;-76
2022/05/30 01:21:02;;;;;;;11.65;5.47;;;12.10;99.90;;;;;;5046011;28;20040;-75
2022/05/30 01:23:44;;;;;;;18.55;8.45;;;12.20;99.90;;;;;;5037157;28;20021;-76
2022/05/30 01:26:27;;;;;;;5.85;2.97;;;12.30;99.90;;;;;;5047558;28;20163;-75
2022/05/30 01:29:12;;;;;;;3.33;2.20;;;12.50;99.90;;;;;;5050550;28;20033;-76
2022/05/30 01:31:40;;;;;;;4.20;1.60;;;12.80;99.90;;;;;;5040999;28;20387;-76
2022/05/30 01:34:07;;;;;;;5.05;1.58;;;14.60;99.90;;;;;;5049907;28;20108;-76
2022/05/30 01:36:35;;;;;;;2.03;1.33;;;16.60;99.90;;;;;;5048441;28;20036;-76
2022/05/30 01:39:03;;;;;;;5.45;1.75;;;17.80;99.90;;;;;;5035491;28;20033;-75
2022/05/30 01:41:31;;;;;;;2.50;1.35;;;17.90;99.70;;;;;;5032440;28;20501;-75
2022/05/30 01:43:58;;;;;;;2.33;1.17;;;18.70;99.70;;;;;;5031425;28;20025;-76
2022/05/30 01:46:26;;;;;;;2.83;1.13;;;20.10;98.00;;;;;;5051027;28;20048;-76
2022/05/30 01:48:54;;;;;;;1.05;0.57;;;20.90;96.40;;;;;;5048985;28;20060;-76
2022/05/30 01:51:22;;;;;;;0.90;0.30;;;21.50;94.90;;;;;;5036484;28;20402;-77
2022/05/30 01:53:50;;;;;;;0.82;0.35;;;22.00;94.10;;;;;;5033197;28;20017;-75
2022/05/30 01:56:19;;;;;;;0.90;0.45;;;22.20;92.90;;;;;;5049362;28;20102;-76
2022/05/30 01:58:46;;;;;;;2.70;0.50;;;22.20;93.60;;;;;;5035250;28;20025;-76
2022/05/30 02:01:20;;;;;;;1.70;0.47;;;21.10;93.10;;;;;;5033476;28;20108;-75
2022/05/30 02:03:49;;;;;;;0.40;0.28;;;19.50;94.70;;;;;;5050754;28;20395;-75
2022/05/30 02:06:17;;;;;;;1.00;0.30;;;18.40;96.30;;;;;;5036471;28;20105;-76
2022/05/30 02:08:44;;;;;;;0.75;0.40;;;18.40;97.60;;;;;;5043630;28;20440;-76
2022/05/30 02:11:12;;;;;;;0.88;0.40;;;18.50;96.90;;;;;;5045602;28;20049;-77
2022/05/30 02:13:40;;;;;;;4.05;0.45;;;19.10;96.50;;;;;;5043461;28;20380;-78
2022/05/30 02:18:57;;;;;;;2.80;0.30;;;20.80;94.70;;;;;;5037952;28;20082;-76
2022/05/30 02:21:24;;;;;;;1.52;0.28;;;19.90;94.40;;;;;;5048505;28;20124;-78
2022/05/30 02:23:51;;;;;;;0.17;0.13;;;18.80;95.40;;;;;;5033418;28;20108;-76
2022/05/30 02:26:19;;;;;;;0.20;0.13;;;18.00;95.90;;;;;;5032637;28;20120;-77
2022/05/30 02:28:47;;;;;;;4.90;0.30;;;17.50;97.40;;;;;;5032041;28;20029;-77
2022/05/30 02:31:14;;;;;;;1.45;0.20;;;17.10;97.90;;;;;;5031036;28;20052;-77
2022/05/30 02:36:39;;;;;;;0.47;0.20;;;16.50;98.40;;;;;;5029851;28;20098;-74
2022/05/30 02:39:21;;;;;;;0.90;0.30;;;16.30;98.60;;;;;;5030562;28;20087;-76
2022/05/30 02:41:49;;;;;;;0.30;0.15;;;16.20;99.00;;;;;;5028284;28;20108;-75
2022/05/30 02:44:19;;;;;;;0.40;0.20;;;16.10;99.10;;;;;;5033103;28;20040;-76
2022/05/30 02:46:50;;;;;;;0.30;0.20;;;16.00;99.70;;;;;;5030308;28;20105;-75
2022/05/30 02:49:19;;;;;;;1.60;0.25;;;16.00;99.50;;;;;;5032038;28;20045;-76
2022/05/30 02:51:47;;;;;;;0.25;0.17;;;16.00;99.50;;;;;;5034427;28;20992;-79
2022/05/30 02:54:14;;;;;;;0.40;0.20;;;15.90;99.60;;;;;;5029375;28;20029;-81
2022/05/30 02:56:42;;;;;;;0.28;0.20;;;15.80;99.90;;;;;;5030280;28;20039;-79
2022/05/30 02:59:10;;;;;;;0.22;0.20;;;15.70;99.90;;;;;;5030252;28;20033;-82
2022/05/30 03:01:37;;;;;;;1.23;0.10;;;15.70;99.90;;;;;;5032158;28;20175;-81
2022/05/30 03:04:05;;;;;;;1.33;0.25;;;15.70;99.90;;;;;;5029040;28;20017;-83
2022/05/30 03:06:32;;;;;;;1.63;0.38;;;15.60;99.90;;;;;;5030864;28;20090;-79
2022/05/30 03:09:00;;;;;;;0.50;0.20;;;15.60;99.90;;;;;;5034038;28;20041;-76
2022/05/30 03:11:27;;;;;;;0.13;0.10;;;15.60;99.90;;;;;;5041646;28;20036;-79
2022/05/30 03:13:55;;;;;;;0.20;0.10;;;15.60;99.90;;;;;;5041846;28;20036;-77
2022/05/30 03:16:22;;;;;;;0.82;0.30;;;15.80;99.90;;;;;;5041382;28;20171;-76
2022/05/30 03:18:49;;;;;;;1.52;0.38;;;15.90;99.90;;;;;;5040962;28;20079;-79
2022/05/30 03:21:17;;;;;;;0.88;0.30;;;16.10;99.90;;;;;;5028308;28;20029;-82
2022/05/30 03:23:44;;;;;;;0.73;0.30;;;16.20;99.90;;;;;;5031599;28;20432;-78
2022/05/30 03:26:13;;;;;;;1.27;0.60;;;16.20;99.90;;;;;;5031056;28;20026;-79
2022/05/30 03:28:40;;;;;;;1.05;0.20;;;16.20;99.90;;;;;;5031974;28;20140;-76
2022/05/30 03:31:09;;;;;;;0.30;0.17;;;16.20;99.90;;;;;;5034189;28;20038;-78
2022/05/30 03:33:42;;;;;;;0.55;0.32;;;16.10;99.90;;;;;;5027391;28;20032;-79
2022/05/30 03:36:27;;;;;;;0.73;0.28;;;16.20;99.90;;;;;;5031685;28;20060;-80
2022/05/30 03:38:55;;;;;;;0.20;0.20;;;16.20;99.90;;;;;;5033148;28;20472;-78
2022/05/30 03:41:22;;;;;;;0.80;0.20;;;16.20;99.90;;;;;;5046255;28;20116;-77
2022/05/30 03:43:50;;;;;;;1.45;0.10;;;16.20;99.90;;;;;;5043553;28;20409;-75
2022/05/30 03:46:17;;;;;;;2.55;0.20;;;16.20;99.90;;;;;;5037122;28;20030;-78
2022/05/30 03:48:45;;;;;;;0.93;0.30;;;16.20;99.90;;;;;;5033176;28;20049;-77
2022/05/30 03:51:14;;;;;;;0.25;0.17;;;16.30;99.90;;;;;;5031455;28;20025;-78
2022/05/30 03:53:42;;;;;;;0.60;0.22;;;16.30;99.90;;;;;;5032734;28;20029;-79
2022/05/30 03:56:11;;;;;;;0.20;0.20;;;16.30;99.90;;;;;;5030303;28;20028;-79
2022/05/30 03:58:39;;;;;;;0.40;0.20;;;16.20;99.90;;;;;;5031864;28;20120;-79
2022/05/30 04:01:09;;;;;;;0.85;0.10;;;16.10;99.90;;;;;;5030717;28;20033;-75
2022/05/30 04:03:37;;;;;;;0.98;0.20;;;16.00;99.90;;;;;;5032392;28;20439;-77
2022/05/30 04:06:05;;;;;;;0.32;0.10;;;16.00;99.90;;;;;;5031893;28;20749;-75
2022/05/30 04:08:33;;;;;;;0.30;0.20;;;15.90;99.90;;;;;;5028891;28;20060;-79
2022/05/30 04:11:01;;;;;;;0.52;0.35;;;15.90;99.90;;;;;;5028689;28;20033;-75
2022/05/30 04:13:28;;;;;;;0.43;0.22;;;16.00;99.90;;;;;;5030169;28;20040;-79
2022/05/30 04:15:55;;;;;;;0.77;0.20;;;16.20;99.90;;;;;;5032181;28;20037;-78
2022/05/30 04:18:23;;;;;;;0.70;0.30;;;16.20;99.90;;;;;;5031503;28;20021;-78
2022/05/30 04:20:50;;;;;;;1.10;0.90;;;16.20;99.90;;;;;;5030624;28;20451;-77
2022/05/30 04:23:17;;;;;;;0.50;0.20;;;16.10;99.90;;;;;;5028686;28;20102;-77
2022/05/30 04:25:45;;;;;;;2.10;0.20;;;16.00;99.90;;;;;;5030842;28;20428;-79
2022/05/30 04:28:12;;;;;;;0.35;0.30;;;16.00;99.90;;;;;;5032755;28;20053;-79
2022/05/30 04:30:39;;;;;;;1.65;0.32;;;16.00;99.90;;;;;;5033152;28;20094;-76
2022/05/30 04:33:07;;;;;;;0.45;0.40;;;16.00;99.90;;;;;;5028366;28;20037;-79
2022/05/30 04:35:34;;;;;;;1.13;0.30;;;16.00;99.90;;;;;;5032850;28;20025;-75
2022/05/30 04:38:01;;;;;;;0.35;0.20;;;15.90;99.90;;;;;;5038259;28;20957;-83
2022/05/30 04:40:29;;;;;;;0.80;0.28;;;15.90;99.90;;;;;;5032426;28;20068;-80
2022/05/30 04:42:58;;;;;;;0.75;0.25;;;15.90;99.90;;;;;;5034391;28;20116;-79
2022/05/30 04:45:25;;;;;;;0.63;0.43;;;15.80;99.90;;;;;;5041212;28;20483;-81
2022/05/30 04:47:53;;;;;;;1.00;0.30;;;15.70;99.90;;;;;;5031016;28;20065;-80
2022/05/30 04:50:20;;;;;;;0.43;0.20;;;15.60;99.90;;;;;;5031028;28;20045;-79
2022/05/30 04:52:48;;;;;;;0.93;0.30;;;15.50;99.90;;;;;;5034181;28;20033;-78
2022/05/30 04:55:18;;;;;;;0.60;0.43;;;15.40;99.90;;;;;;5033774;28;20029;-74
2022/05/30 04:57:47;;;;;;;0.52;0.43;;;15.40;99.90;;;;;;5034556;28;20768;-77
2022/05/30 05:00:18;;;;;;;0.80;0.40;;;15.40;99.90;;;;;;5033659;28;20026;-79
2022/05/30 05:02:45;;;;;;;0.30;0.30;;;15.40;99.90;;;;;;5031496;28;20106;-79
2022/05/30 05:05:13;;;;;;;0.35;0.20;;;15.30;99.90;;;;;;5029422;28;20021;-77
2022/05/30 05:07:47;;;;;;;1.02;0.30;;;15.30;99.90;;;;;;5048713;28;20079;-80
2022/05/30 05:10:41;;;;;;;0.55;0.22;;;15.30;99.90;;;;;;5046257;28;20032;-80
2022/05/30 05:13:09;;;;;;;3.83;0.80;;;15.40;99.90;;;;;;5045845;28;20392;-74
2022/05/30 05:15:36;;;;;;;2.67;1.60;;;15.40;99.90;;;;;;5036653;28;20123;-78
2022/05/30 05:18:04;;;;;;;3.22;1.88;;;15.20;99.90;;;;;;5042224;28;20029;-81
2022/05/30 05:20:38;;;;;;;2.85;1.30;;;15.00;99.90;;;;;;5035651;28;20029;-79
2022/05/30 05:23:05;;;;;;;2.92;1.65;;;14.80;99.90;;;;;;5039065;28;20033;-77
2022/05/30 05:25:36;;;;;;;1.95;1.58;;;14.60;99.90;;;;;;5032936;28;20033;-76
2022/05/30 05:28:03;;;;;;;5.03;2.53;;;14.50;99.90;;;;;;5037873;28;20064;-76
2022/05/30 05:30:31;;;;;;;4.25;2.47;;;14.40;99.90;;;;;;5034042;28;20142;-81
2022/05/30 05:32:58;;;;;;;3.63;2.25;;;14.20;99.90;;;;;;5041203;28;20040;-80
2022/05/30 05:35:26;;;;;;;5.50;2.60;;;14.10;99.90;;;;;;5035311;28;20030;-76
2022/05/30 05:37:53;;;;;;;5.53;3.72;;;14.00;99.90;;;;;;5037074;28;20032;-80
2022/05/30 05:40:20;;;;;;;4.82;2.65;;;13.90;99.90;;;;;;5047967;28;20371;-78
2022/05/30 05:42:47;;;;;;;6.47;2.50;;;13.80;99.90;;;;;;5049719;28;20112;-80
2022/05/30 05:45:15;;;;;;;6.65;3.28;;;13.80;99.90;;;;;;5033866;28;20033;-76
2022/05/30 05:47:42;;;;;;;4.68;2.90;;;13.70;99.90;;;;;;5031236;28;20095;-78
2022/05/30 05:50:10;;;;;;;5.97;2.47;;;13.70;99.90;;;;;;5043259;28;20076;-76
2022/05/30 05:52:38;;;;;;;8.70;3.35;;;13.70;99.90;;;;;;5051045;28;20025;-75
2022/05/30 05:55:06;;;;;;;4.95;2.95;;;13.60;99.90;;;;;;5045903;28;20029;-77
2022/05/30 05:57:33;;;;;;;3.42;2.83;;;13.50;99.90;;;;;;5040974;28;20474;-76
2022/05/30 06:00:01;;;;;;;4.97;2.40;;;13.40;99.90;;;;;;5046601;28;20033;-78
2022/05/30 06:02:30;;;;;;;4.10;2.58;;;13.40;99.90;;;;;;5030454;28;20547;-81
2022/05/30 06:04:57;;;;;;;5.82;3.03;;;13.40;99.90;;;;;;5037537;28;20033;-81
2022/05/30 06:07:25;;;;;;;4.18;2.88;;;13.40;99.90;;;;;;5034758;28;20454;-79
2022/05/30 06:09:52;;;;;;;7.70;2.72;;;13.30;99.90;;;;;;5043470;28;20025;-79
2022/05/30 06:12:20;;;;;;;5.60;3.17;;;13.20;99.90;;;;;;5048190;28;20041;-77
2022/05/30 06:14:47;;;;;;;8.38;2.72;;;13.10;99.90;;;;;;5046797;28;20059;-76
2022/05/30 06:17:14;;;;;;;8.35;3.08;;;13.10;99.90;;;;;;5032935;28;20028;-74
2022/05/30 06:19:42;;;;;;;5.13;3.33;;;13.00;99.90;;;;;;5041935;28;20032;-78
2022/05/30 06:22:10;;;;;;;5.97;3.10;;;13.00;99.90;;;;;;5031452;28;20029;-78
2022/05/30 06:24:38;;;;;;;5.40;2.80;;;12.90;99.90;;;;;;5030134;28;20022;-76
2022/05/30 06:27:06;;;;;;;6.18;3.05;;;12.90;99.90;;;;;;5036985;28;20111;-77
2022/05/30 06:29:34;;;;;;;7.68;3.53;;;12.80;99.90;;;;;;5031717;28;20029;-79
2022/05/30 06:32:02;;;;;;;5.80;3.08;;;12.80;99.90;;;;;;5041895;28;20037;-77
2022/05/30 06:34:30;;;;;;;4.97;2.88;;;12.70;99.90;;;;;;5036695;28;20017;-77
2022/05/30 06:36:57;;;;;;;5.13;2.28;;;12.40;99.90;;;;;;5050408;28;20112;-74
2022/05/30 06:39:27;;;;;;;3.85;2.35;;;12.20;99.90;;;;;;5047668;28;20025;-75
2022/05/30 06:41:55;;;;;;;2.45;1.27;;;12.00;99.90;;;;;;5042609;28;20136;-79
2022/05/30 06:44:22;;;;;;;4.72;2.17;;;11.90;99.90;;;;;;5041355;28;20108;-82
2022/05/30 06:46:49;;;;;;;3.90;2.80;;;11.90;99.90;;;;;;5049957;28;20021;-79
2022/05/30 06:49:17;;;;;;;9.88;4.57;;;11.90;99.90;;;;;;5036702;28;20099;-76
2022/05/30 06:51:44;;;;;;;3.97;2.05;;;11.80;99.90;;;;;;5042084;28;20546;-82
2022/05/30 06:54:11;;;;;;;3.03;0.90;;;11.70;99.90;;;;;;5047331;28;20068;-77
2022/05/30 06:59:38;;;;;;;0.80;0.40;;;11.70;99.90;;;;;;5045199;28;20124;-79
2022/05/30 07:02:07;;;;;;;0.75;0.30;;;11.70;99.90;;;;;;5036674;28;20036;-75
2022/05/30 07:04:35;;;;;;;1.10;0.30;;;11.70;99.90;;;;;;5044316;28;20048;-79
2022/05/30 07:07:07;;;;;;;0.82;0.20;;;11.70;99.90;;;;;;5041478;28;20036;-75
2022/05/30 07:09:35;;;;;;;0.40;0.20;;;11.70;99.90;;;;;;5034130;28;20043;-78
2022/05/30 07:12:03;;;;;;;0.40;0.30;;;11.70;99.90;;;;;;5030425;28;20034;-79
2022/05/30 07:14:30;;;;;;;0.40;0.22;;;11.70;99.90;;;;;;5040514;28;20029;-77
2022/05/30 07:16:57;;;;;;;2.90;0.47;;;11.70;99.90;;;;;;5040006;28;20036;-79
2022/05/30 07:19:25;;;;;;;1.85;0.50;;;11.60;99.90;;;;;;5048574;28;20025;-79
2022/05/30 07:21:52;;;;;;;0.90;0.50;;;11.60;99.90;;;;;;5032462;28;20022;-78
2022/05/30 07:24:19;;;;;;;0.75;0.30;;;11.60;99.90;;;;;;5044987;28;20084;-80
2022/05/30 07:26:47;;;;;;;1.02;0.45;;;11.50;99.90;;;;;;5043061;28;20025;-79
2022/05/30 07:29:14;;;;;;;3.05;1.13;;;11.50;99.90;;;;;;5040471;28;20053;-77
2022/05/30 07:31:42;;;;;;;3.17;1.60;;;11.60;99.90;;;;;;5049274;28;20068;-78
2022/05/30 07:34:09;;;;;;;2.92;1.10;;;11.60;99.90;;;;;;5045603;28;20041;-74
2022/05/30 07:36:36;;;;;;;1.58;0.77;;;11.60;99.90;;;;;;5030125;28;20511;-78
2022/05/30 07:39:04;;;;;;;1.27;0.50;;;11.60;99.90;;;;;;5030335;28;20506;-77
2022/05/30 07:41:31;;;;;;;4.57;1.02;;;11.60;99.90;;;;;;5046397;28;20032;-80
2022/05/30 07:43:59;;;;;;;1.20;0.50;;;11.60;99.90;;;;;;5043455;28;20384;-78
2022/05/30 07:46:26;;;;;;;0.57;0.35;;;11.60;99.90;;;;;;5048869;28;20017;-79
2022/05/30 07:48:53;;;;;;;0.43;0.43;;;11.60;99.90;;;;;;5032438;28;20068;-77
2022/05/30 07:51:21;;;;;;;0.70;0.38;;;11.60;99.90;;;;;;5040068;28;20076;-75
2022/05/30 07:53:49;;;;;;;1.40;0.70;;;11.60;99.90;;;;;;5038469;28;20150;-80
2022/05/30 07:56:18;;;;;;;1.45;0.55;;;11.60;99.90;;;;;;5030350;28;20037;-79
2022/05/30 07:58:46;;;;;;;1.02;0.47;;;11.60;99.90;;;;;;5029082;28;20026;-78
2022/05/30 08:01:16;;;;;;;0.77;0.40;;;11.60;99.90;;;;;;5037288;28;20017;-75
2022/05/30 08:03:44;;;;;;;1.15;0.60;;;11.50;99.90;;;;;;5037658;28;20037;-76
2022/05/30 08:06:17;;;;;;;2.53;0.77;;;11.50;99.90;;;;;;5049709;28;20391;-76
2022/05/30 08:08:45;;;;;;;1.35;0.65;;;11.50;99.90;;;;;;5052716;28;20391;-78
2022/05/30 08:11:15;;;;;;;1.13;0.50;;;11.50;99.90;;;;;;5045185;28;20098;-77
2022/05/30 08:13:45;;;;;;;1.40;0.60;;;11.50;99.90;;;;;;5049706;28;20451;-77
2022/05/30 08:16:16;;;;;;;2.08;0.90;;;11.50;99.90;;;;;;5041319;28;20483;-78
2022/05/30 08:18:44;;;;;;;2.13;0.45;;;11.40;99.90;;;;;;5047768;28;20040;-75
2022/05/30 08:21:11;;;;;;;1.13;0.60;;;11.40;99.90;;;;;;5049589;28;20488;-77
2022/05/30 08:23:39;;;;;;;5.28;0.90;;;11.30;99.90;;;;;;5052349;28;20025;-76
2022/05/30 08:26:07;;;;;;;2.80;1.00;;;11.30;99.90;;;;;;5038998;28;20021;-78
2022/05/30 08:28:35;;;;;;;2.28;1.20;;;11.20;99.90;;;;;;5044073;28;20483;-77
2022/05/30 08:31:03;;;;;;;3.08;1.90;;;11.10;99.90;;;;;;5042287;28;20040;-77
2022/05/30 08:33:30;;;;;;;3.97;1.70;;;11.00;99.90;;;;;;5052183;28;20028;-78
2022/05/30 08:36:02;;;;;;;2.65;1.48;;;10.90;99.90;;;;;;5044201;28;20025;-78
2022/05/30 08:38:37;;;;;;;1.63;0.82;;;10.80;99.90;;;;;;5042568;28;20040;-79
2022/05/30 08:44:01;;;;;;;4.28;1.40;;;10.70;99.90;;;;;;5032600;28;20071;-78
2022/05/30 08:46:32;;;;;;;1.85;0.88;;;10.70;99.90;;;;;;5046013;28;20049;-78
2022/05/30 08:49:22;;;;;;;1.63;0.85;;;10.60;99.90;;;;;;5048057;28;20064;-76
2022/05/30 08:51:49;;;;;;;1.92;0.82;;;10.60;99.90;;;;;;5047562;28;20064;-75
2022/05/30 08:54:30;;;;;;;2.72;0.98;;;10.50;99.90;;;;;;5041026;28;20475;-73
2022/05/30 08:57:00;;;;;;;1.73;0.95;;;10.50;99.90;;;;;;5038752;28;20033;-77
2022/05/30 08:59:49;;;;;;;2.00;1.00;;;10.40;99.90;;;;;;5038852;28;20086;-73
2022/05/30 09:02:22;;;;;;;1.92;1.00;;;10.30;99.90;;;;;;5045614;28;20104;-81
2022/05/30 09:05:01;;;;;;;0.98;0.52;;;10.20;99.90;;;;;;5036425;28;20037;-80
2022/05/30 09:07:36;;;;;;;1.40;0.90;;;10.10;99.90;;;;;;5041603;28;20526;-79
2022/05/30 09:10:18;;;;;;;2.63;0.97;;;10.00;99.90;;;;;;5042517;28;20124;-77
2022/05/30 09:12:48;;;;;;;3.33;1.60;;;9.90;99.90;;;;;;5041038;28;20346;-78
2022/05/30 09:15:32;;;;;;;4.32;2.00;;;9.80;99.90;;;;;;5036135;28;20025;-80
2022/05/30 09:18:25;;;;;;;3.40;1.17;;;9.70;99.90;;;;;;5036492;28;20563;-78
2022/05/30 09:20:53;;;;;;;1.35;1.05;;;9.70;99.90;;;;;;5045535;28;20072;-81
2022/05/30 09:23:25;;;;;;;5.68;2.33;;;9.60;99.90;;;;;;5051737;28;20104;-80
2022/05/30 09:25:55;;;;;;;2.80;1.58;;;9.60;99.90;;;;;;5041177;28;20024;-78
2022/05/30 09:28:27;;;;;;;2.33;1.33;;;9.60;99.90;;;;;;5045381;28;20021;-78
2022/05/30 09:31:21;;;;;;;2.05;1.10;;;9.60;99.90;;;;;;5039707;28;20092;-81
2022/05/30 09:33:55;;;;;;;1.48;0.95;;;9.60;99.90;;;;;;5034225;28;20038;-79
2022/05/30 09:36:49;;;;;;;2.35;0.95;;;9.60;99.90;;;;;;5051654;28;20033;-80
2022/05/30 09:39:18;;;;;;;2.35;1.08;;;9.60;99.90;;;;;;5039971;28;20029;-79
2022/05/30 09:41:53;;;;;;;1.25;0.90;;;9.50;99.90;;;;;;5051096;28;20029;-79
2022/05/30 09:44:26;;;;;;;2.35;0.93;;;9.60;99.90;;;;;;5042696;28;20136;-77
2022/05/30 09:47:06;;;;;;;1.70;0.80;;;9.50;99.90;;;;;;5043462;28;20108;-76
2022/05/30 09:49:54;;;;;;;1.63;0.75;;;9.60;99.90;;;;;;5036407;28;20060;-79
2022/05/30 09:52:41;;;;;;;2.72;0.90;;;9.70;99.90;;;;;;5040649;28;20487;-78
2022/05/30 09:55:48;;;;;;;1.30;0.70;;;9.70;99.90;;;;;;5039719;28;20033;-79
2022/05/30 09:58:15;;;;;;;2.40;0.60;;;9.80;99.90;;;;;;5037781;28;20037;-81
2022/05/30 10:00:56;;;;;;;2.15;0.70;;;9.90;99.90;;;;;;5048540;28;20128;-80
2022/05/30 10:03:29;;;;;;;2.05;0.68;;;9.90;99.90;;;;;;5050912;28;20107;-78
2022/05/30 10:06:14;;;;;;;2.08;0.85;;;10.00;99.90;;;;;;5034694;28;20403;-79
2022/05/30 10:08:41;;;;;;;3.38;1.67;;;10.00;99.90;;;;;;5043770;28;20059;-80
2022/05/30 10:11:09;;;;;;;4.65;2.38;;;10.00;99.90;;;;;;5050382;28;20033;-81
2022/05/30 10:13:39;;;;;;;4.93;2.85;;;9.90;99.90;;;;;;5034328;28;20071;-81
2022/05/30 10:16:13;;;;;;;3.63;2.22;;;9.80;99.90;;;;;;5046500;28;20025;-79
2022/05/30 10:19:10;;;;;;;2.20;0.90;;;9.70;99.90;;;;;;5051538;28;20023;-78
2022/05/30 10:28:15;;;;;;;2.60;1.20;;;9.40;99.90;;;;;;5034446;28;20086;-80
2022/05/30 10:30:49;;;;;;;3.45;0.82;;;9.30;99.90;;;;;;5044649;28;20068;-81
2022/05/30 10:33:29;;;;;;;1.35;0.50;;;9.20;99.90;;;;;;5041814;28;20060;-80
2022/05/30 10:36:44;;;;;;;1.27;0.60;;;9.20;99.90;;;;;;5046239;28;20430;-78
2022/05/30 10:39:23;;;;;;;0.90;0.60;;;9.10;99.90;;;;;;5020392;28;20029;-78
2022/05/30 10:42:07;;;;;;;1.05;0.55;;;9.10;99.90;;;;;;5034480;28;20041;-78
2022/05/30 10:44:40;;;;;;;0.52;0.40;;;9.20;99.90;;;;;;5049257;28;20111;-76
2022/05/30 10:47:31;;;;;;;0.45;0.45;;;9.10;99.90;;;;;;5033320;28;20037;-80
2022/05/30 10:50:10;;;;;;;1.30;0.90;;;9.20;99.90;;;;;;5038207;28;20758;-74
2022/05/30 10:52:44;;;;;;;1.33;0.73;;;9.20;99.90;;;;;;5046325;28;20048;-78
2022/05/30 10:55:25;;;;;;;1.70;0.82;;;9.10;99.90;;;;;;5048910;28;20033;-77
2022/05/30 10:58:31;;;;;;;1.38;0.68;;;9.00;99.90;;;;;;5031438;28;20411;-77
2022/05/30 11:01:14;;;;;;;1.67;0.73;;;9.00;99.90;;;;;;5024587;28;20029;-78
2022/05/30 11:04:03;;;;;;;10.73;4.43;;;8.90;99.90;;;;;;5040469;28;20055;-77
2022/05/30 11:06:34;;;;;;;3.95;1.92;;;9.00;99.90;;;;;;5046052;28;20021;-78
2022/05/30 11:09:35;;;;;;;1.75;0.65;;;8.90;99.90;;;;;;5048431;28;20035;-77
2022/05/30 11:12:20;;;;;;;1.05;0.60;;;8.90;99.90;;;;;;5030709;28;20041;-80
2022/05/30 11:15:24;;;;;;;1.75;0.90;;;9.00;99.90;;;;;;5039294;28;20112;-78
2022/05/30 11:18:01;;;;;;;3.17;1.30;;;9.00;99.90;;;;;;5039897;28;20427;-78
2022/05/30 11:20:54;;;;;;;2.30;1.05;;;9.00;99.90;;;;;;5040992;28;20021;-76
2022/05/30 11:23:21;;;;;;;2.05;0.63;;;9.00;99.90;;;;;;5036873;28;20141;-78
2022/05/30 11:26:02;;;;;;;0.77;0.45;;;9.10;99.90;;;;;;5043832;28;20087;-78
2022/05/30 11:28:50;;;;;;;0.60;0.30;;;9.20;99.90;;;;;;5044972;28;20440;-77
2022/05/30 11:31:23;;;;;;;1.80;0.45;;;9.40;99.90;;;;;;5039336;28;20380;-80
2022/05/30 11:34:46;;;;;;;2.10;0.93;;;9.70;99.90;;;;;;5044234;28;20044;-80
2022/05/30 11:37:19;;;;;;;1.23;0.40;;;9.80;99.90;;;;;;4997374;28;20034;-79
2022/05/30 11:40:10;;;;;;;0.75;0.40;;;10.10;99.90;;;;;;5061902;28;20371;-79
2022/05/30 11:42:43;;;;;;;0.57;0.28;;;10.20;99.90;;;;;;5038923;28;20021;-79
2022/05/30 11:45:20;;;;;;;0.60;0.22;;;10.20;99.90;;;;;;5048059;28;20049;-79
2022/05/30 11:48:21;;;;;;;2.83;0.65;;;10.20;99.90;;;;;;5036633;28;20059;-78
2022/05/30 11:51:14;;;;;;;1.90;0.30;;;10.20;99.90;;;;;;5048017;28;20505;-75
2022/05/30 11:54:18;;;;;;;0.82;0.30;;;10.20;99.90;;;;;;5040802;28;20134;-78
2022/05/30 11:57:11;;;;;;;1.45;0.40;;;10.20;99.90;;;;;;5033888;28;20052;-78
2022/05/30 11:59:57;;;;;;;2.83;0.50;;;10.20;99.90;;;;;;5045451;28;20025;-81
2022/05/30 12:02:47;;;;;;;5.80;1.05;;;10.20;99.90;;;;;;5046893;28;20044;-79
2022/05/30 12:05:38;;;;;;;3.03;0.75;;;10.20;99.90;;;;;;5050150;28;20463;-79
2022/05/30 12:08:44;;;;;;;1.67;0.40;;;10.10;99.90;;;;;;5058203;28;20017;-79
2022/05/30 12:11:32;;;;;;;0.63;0.20;;;10.20;99.90;;;;;;5053269;28;20073;-78
2022/05/30 12:14:33;;;;;;;1.10;0.20;;;10.80;99.90;;;;;;5041053;28;20034;-77
2022/05/30 12:17:31;;;;;;;0.40;0.40;;;11.40;99.90;;;;;;5044170;28;20033;-77
2022/05/30 12:25:56;;;;;;;0.10;0.10;;;11.90;99.90;;;;;;5039607;28;20387;-79
2022/05/30 12:28:32;;;;;;;1.75;0.05;;;12.00;99.90;;;;;;5045451;28;20022;-79
2022/05/30 12:31:00;;;;;;;;;;;12.10;99.90;;;;;;5033818;28;20038;-78
2022/05/30 12:33:30;;;;;;;0.20;0.10;;;12.30;99.90;;;;;;5033482;28;19909;-80
2022/05/30 12:36:10;;;;;;;1.85;0.03;;;12.40;99.90;;;;;;5032200;28;20033;-77
2022/05/30 12:38:53;;;;;;;1.08;0.32;;;12.50;99.90;;;;;;5024158;28;20075;-76
2022/05/30 12:41:49;;;;;;;0.45;0.10;;;12.50;99.90;;;;;;5024820;28;20483;-76
2022/05/30 12:44:45;;;;;;;0.00;0.00;;;12.40;99.90;;;;;;5028829;28;20129;-79
2022/05/30 12:47:26;;;;;;;0.10;0.10;;;12.50;99.90;;;;;;5025519;28;20097;-77
2022/05/30 12:50:15;;;;;;;0.85;0.20;;;12.50;99.90;;;;;;5022708;28;20057;-75
2022/05/30 12:52:56;;;;;;;3.78;0.30;;;12.60;99.90;;;;;;5025405;28;20126;-77
2022/05/30 12:55:43;;;;;;;0.20;0.10;;;12.60;99.90;;;;;;5027540;28;20060;-76
2022/05/30 12:58:20;;;;;;;0.22;0.00;;;12.60;99.30;;;;;;5025659;28;20037;-77
2022/05/30 13:00:55;;;;;;;0.00;0.00;;;12.80;98.60;;;;;;5024713;28;20665;-77
2022/05/30 13:03:34;;;;;;;0.10;0.03;;;12.90;98.60;;;;;;5024034;28;20479;-79
2022/05/30 13:06:24;;;;;;;0.08;0.08;;;12.80;98.60;;;;;;5027194;28;20039;-80
2022/05/30 13:09:06;;;;;;;0.10;0.00;;;12.80;99.00;;;;;;5031485;28;20460;-80
2022/05/30 13:11:33;;;;;;;1.45;0.20;;;12.80;99.10;;;;;;5025634;28;20044;-76
2022/05/30 13:14:13;;;;;;;0.75;0.10;;;12.70;99.00;;;;;;5027303;28;20095;-79
2022/05/30 13:16:44;;;;;;;0.17;0.00;;;12.60;99.40;;;;;;5024650;28;20107;-79
2022/05/30 13:19:14;;;;;;;0.70;0.08;;;12.40;99.80;;;;;;5024739;28;20037;-80
2022/05/30 13:21:46;;;;;;;0.35;0.10;;;12.30;99.80;;;;;;5021395;28;20038;-77
2022/05/30 13:24:37;;;;;;;0.15;0.10;;;12.30;99.90;;;;;;5024770;28;20032;-77
2022/05/30 13:27:05;;;;;;;1.23;0.20;;;12.20;99.90;;;;;;5020879;28;20030;-75
2022/05/30 13:29:41;;;;;;;0.63;0.10;;;12.00;99.90;;;;;;5025390;28;20055;-78
2022/05/30 13:32:15;;;;;;;0.40;0.17;;;12.00;99.90;;;;;;5023538;28;20140;-76
2022/05/30 13:34:48;;;;;;;0.43;0.10;;;12.20;99.90;;;;;;5023593;28;20045;-78
2022/05/30 13:37:27;;;;;;;0.00;0.00;;;12.30;99.90;;;;;;5020512;28;20033;-76
2022/05/30 13:39:58;;;;;;;0.45;0.13;;;12.30;99.90;;;;;;5024161;28;20142;-76
2022/05/30 13:42:47;;;;;;;0.25;0.13;;;12.20;99.90;;;;;;5035409;28;20059;-76
2022/05/30 13:45:16;;;;;;;3.13;0.15;;;12.10;99.90;;;;;;5026376;28;20207;-75